sensor_id;sensor_type;location;lat;lon;timestamp;pressure;altitude;pressure_sealevel;temperature;humidity
65227;BME280;51805;49.012;12.104;2023-04-21T00:00:22;97448.66;;;22.26;51.77
65227;BME280;51805;49.012;12.104;2023-04-21T00:02:47;97368.84;;;21.81;51.83
65227;BME280;51805;49.012;12.104;2023-04-21T00:05:12;97368.84;;;21.81;51.69
65227;BME280;51805;49.012;12.104;2023-04-21T00:07:38;97404.75;;;22.10;51.75
65227;BME280;51805;49.012;12.104;2023-04-21T00:10:05;97398.34;;;22.01;51.87
65227;BME280;51805;49.012;12.104;2023-04-21T00:12:31;97426.56;;;22.19;51.84
65227;BME280;51805;49.012;12.104;2023-04-21T00:14:56;97370.47;;;21.82;51.94
65227;BME280;51805;49.012;12.104;2023-04-21T00:17:21;97426.28;;;22.20;52.03
65227;BME280;51805;49.012;12.104;2023-04-21T00:19:47;97386.50;;;21.97;51.87
65227;BME280;51805;49.012;12.104;2023-04-21T00:22:12;97359.66;;;21.82;51.90
65227;BME280;51805;49.012;12.104;2023-04-21T00:24:37;97366.09;;;21.86;51.90
65227;BME280;51805;49.012;12.104;2023-04-21T00:27:03;97343.78;;;21.76;51.94
65227;BME280;51805;49.012;12.104;2023-04-21T00:29:28;97349.91;;;21.81;52.17
65227;BME280;51805;49.012;12.104;2023-04-21T00:31:53;97367.09;;;21.90;51.89
65227;BME280;51805;49.012;12.104;2023-04-21T00:34:18;97412.97;;;22.24;51.88
65227;BME280;51805;49.012;12.104;2023-04-21T00:36:44;97411.41;;;22.18;52.16
65227;BME280;51805;49.012;12.104;2023-04-21T00:39:09;97400.44;;;22.09;52.15
65227;BME280;51805;49.012;12.104;2023-04-21T00:41:35;97416.75;;;22.23;52.13
65227;BME280;51805;49.012;12.104;2023-04-21T00:44:05;97401.75;;;22.12;51.94
65227;BME280;51805;49.012;12.104;2023-04-21T00:46:31;97414.34;;;22.21;52.03
65227;BME280;51805;49.012;12.104;2023-04-21T00:48:57;97398.84;;;22.08;52.27
65227;BME280;51805;49.012;12.104;2023-04-21T00:51:23;97408.50;;;22.14;52.23
65227;BME280;51805;49.012;12.104;2023-04-21T00:53:49;97422.47;;;22.21;52.04
65227;BME280;51805;49.012;12.104;2023-04-21T00:56:15;97398.31;;;22.06;52.11
65227;BME280;51805;49.012;12.104;2023-04-21T00:58:41;97421.44;;;22.17;52.25
65227;BME280;51805;49.012;12.104;2023-04-21T01:01:06;97370.19;;;21.84;52.06
65227;BME280;51805;49.012;12.104;2023-04-21T01:03:32;97407.59;;;22.00;52.06
65227;BME280;51805;49.012;12.104;2023-04-21T01:05:57;97414.00;;;22.04;51.99
65227;BME280;51805;49.012;12.104;2023-04-21T01:08:23;97389.13;;;21.84;52.03
65227;BME280;51805;49.012;12.104;2023-04-21T01:10:48;97396.56;;;21.92;52.59
65227;BME280;51805;49.012;12.104;2023-04-21T01:13:13;97416.13;;;22.07;52.37
65227;BME280;51805;49.012;12.104;2023-04-21T01:15:38;97436.63;;;22.13;52.26
65227;BME280;51805;49.012;12.104;2023-04-21T01:18:04;97434.44;;;22.15;52.05
65227;BME280;51805;49.012;12.104;2023-04-21T01:20:29;97429.09;;;22.10;52.22
65227;BME280;51805;49.012;12.104;2023-04-21T01:22:54;97414.53;;;22.06;52.26
65227;BME280;51805;49.012;12.104;2023-04-21T01:25:20;97403.38;;;21.89;52.34
65227;BME280;51805;49.012;12.104;2023-04-21T01:27:45;97403.31;;;21.94;52.39
65227;BME280;51805;49.012;12.104;2023-04-21T01:30:10;97438.25;;;22.14;52.26
65227;BME280;51805;49.012;12.104;2023-04-21T01:32:36;97437.44;;;22.14;52.47
65227;BME280;51805;49.012;12.104;2023-04-21T01:35:01;97414.09;;;21.99;52.37
65227;BME280;51805;49.012;12.104;2023-04-21T01:37:29;97428.34;;;22.05;52.38
65227;BME280;51805;49.012;12.104;2023-04-21T01:39:57;97409.22;;;21.96;52.21
65227;BME280;51805;49.012;12.104;2023-04-21T01:42:27;97404.41;;;21.93;52.31
65227;BME280;51805;49.012;12.104;2023-04-21T01:44:53;97436.63;;;22.13;52.47
65227;BME280;51805;49.012;12.104;2023-04-21T01:47:21;97430.19;;;22.09;52.60
65227;BME280;51805;49.012;12.104;2023-04-21T01:49:47;97424.84;;;22.04;52.47
65227;BME280;51805;49.012;12.104;2023-04-21T01:52:12;97433.19;;;22.08;52.41
65227;BME280;51805;49.012;12.104;2023-04-21T01:54:37;97430.19;;;22.09;52.21
65227;BME280;51805;49.012;12.104;2023-04-21T01:57:03;97426.47;;;22.05;52.45
65227;BME280;51805;49.012;12.104;2023-04-21T01:59:28;97401.41;;;21.95;52.44
65227;BME280;51805;49.012;12.104;2023-04-21T02:01:53;97380.25;;;21.78;52.52
65227;BME280;51805;49.012;12.104;2023-04-21T02:04:19;97435.03;;;22.12;52.46
65227;BME280;51805;49.012;12.104;2023-04-21T02:06:44;97429.75;;;22.02;52.79
65227;BME280;51805;49.012;12.104;2023-04-21T02:09:09;97434.88;;;22.04;52.86
65227;BME280;51805;49.012;12.104;2023-04-21T02:11:34;97432.97;;;22.04;52.63
65227;BME280;51805;49.012;12.104;2023-04-21T02:14:00;97434.00;;;22.08;52.73
65227;BME280;51805;49.012;12.104;2023-04-21T02:16:25;97434.59;;;22.05;52.69
65227;BME280;51805;49.012;12.104;2023-04-21T02:18:54;97437.78;;;22.07;52.63
65227;BME280;51805;49.012;12.104;2023-04-21T02:21:20;97429.50;;;21.99;52.66
65227;BME280;51805;49.012;12.104;2023-04-21T02:23:45;97423.88;;;21.95;52.70
65227;BME280;51805;49.012;12.104;2023-04-21T02:26:11;97414.72;;;21.91;52.97
65227;BME280;51805;49.012;12.104;2023-04-21T02:28:36;97434.59;;;22.05;52.84
65227;BME280;51805;49.012;12.104;2023-04-21T02:31:01;97428.69;;;21.98;52.69
65227;BME280;51805;49.012;12.104;2023-04-21T02:33:27;97407.97;;;21.89;52.50
65227;BME280;51805;49.012;12.104;2023-04-21T02:35:52;97429.47;;;22.04;52.68
65227;BME280;51805;49.012;12.104;2023-04-21T02:38:17;97443.19;;;22.07;52.77
65227;BME280;51805;49.012;12.104;2023-04-21T02:40:42;97428.34;;;22.05;52.74
65227;BME280;51805;49.012;12.104;2023-04-21T02:43:08;97425.94;;;22.03;52.57
65227;BME280;51805;49.012;12.104;2023-04-21T02:45:33;97373.28;;;21.67;52.66
65227;BME280;51805;49.012;12.104;2023-04-21T02:47:58;97400.16;;;21.87;52.63
65227;BME280;51805;49.012;12.104;2023-04-21T02:50:24;97409.03;;;21.93;53.03
65227;BME280;51805;49.012;12.104;2023-04-21T02:52:49;97411.44;;;21.94;52.80
65227;BME280;51805;49.012;12.104;2023-04-21T02:55:14;97364.22;;;21.58;52.68
65227;BME280;51805;49.012;12.104;2023-04-21T02:57:40;97428.66;;;22.03;53.00
65227;BME280;51805;49.012;12.104;2023-04-21T03:00:06;97354.22;;;21.59;52.88
65227;BME280;51805;49.012;12.104;2023-04-21T03:02:31;97416.03;;;21.94;52.82
65227;BME280;51805;49.012;12.104;2023-04-21T03:04:56;97408.56;;;21.86;53.07
65227;BME280;51805;49.012;12.104;2023-04-21T03:07:22;97419.03;;;21.92;52.88
65227;BME280;51805;49.012;12.104;2023-04-21T03:09:47;97437.41;;;21.95;53.19
65227;BME280;51805;49.012;12.104;2023-04-21T03:12:12;97419.63;;;21.89;52.88
65227;BME280;51805;49.012;12.104;2023-04-21T03:14:38;97414.81;;;21.81;52.78
65227;BME280;51805;49.012;12.104;2023-04-21T03:17:03;97433.66;;;21.91;52.73
65227;BME280;51805;49.012;12.104;2023-04-21T03:19:28;97444.41;;;21.96;52.95
65227;BME280;51805;49.012;12.104;2023-04-21T03:21:53;97452.53;;;21.96;53.03
65227;BME280;51805;49.012;12.104;2023-04-21T03:24:19;97438.53;;;21.89;53.09
65227;BME280;51805;49.012;12.104;2023-04-21T03:26:44;97444.97;;;21.93;52.88
65227;BME280;51805;49.012;12.104;2023-04-21T03:29:09;97403.84;;;21.68;53.38
65227;BME280;51805;49.012;12.104;2023-04-21T03:31:35;97418.91;;;21.79;52.97
65227;BME280;51805;49.012;12.104;2023-04-21T03:34:00;97435.03;;;21.89;53.06
65227;BME280;51805;49.012;12.104;2023-04-21T03:36:25;97398.28;;;21.59;53.03
65227;BME280;51805;49.012;12.104;2023-04-21T03:38:50;97450.91;;;21.95;53.20
65227;BME280;51805;49.012;12.104;2023-04-21T03:41:16;97339.16;;;21.24;53.18
65227;BME280;51805;49.012;12.104;2023-04-21T03:43:41;97430.28;;;21.81;52.97
65227;BME280;51805;49.012;12.104;2023-04-21T03:46:06;97456.09;;;21.92;53.23
65227;BME280;51805;49.012;12.104;2023-04-21T03:48:32;97456.09;;;21.92;53.14
65227;BME280;51805;49.012;12.104;2023-04-21T03:50:57;97444.25;;;21.88;53.22
65227;BME280;51805;49.012;12.104;2023-04-21T03:53:22;97432.16;;;21.80;53.12
65227;BME280;51805;49.012;12.104;2023-04-21T03:55:50;97450.47;;;21.88;52.95
65227;BME280;51805;49.012;12.104;2023-04-21T03:58:16;97435.38;;;21.82;52.98
65227;BME280;51805;49.012;12.104;2023-04-21T04:00:42;97379.97;;;21.51;52.85
65227;BME280;51805;49.012;12.104;2023-04-21T04:03:07;97338.69;;;21.17;53.26
65227;BME280;51805;49.012;12.104;2023-04-21T04:05:34;97427.31;;;21.77;53.12
65227;BME280;51805;49.012;12.104;2023-04-21T04:08:00;97446.66;;;21.89;53.11
65227;BME280;51805;49.012;12.104;2023-04-21T04:10:25;97378.34;;;21.50;53.07
65227;BME280;51805;49.012;12.104;2023-04-21T04:12:50;97419.22;;;21.72;53.15
65227;BME280;51805;49.012;12.104;2023-04-21T04:15:16;97379.50;;;21.44;52.94
65227;BME280;51805;49.012;12.104;2023-04-21T04:17:41;97428.16;;;21.73;53.00
65227;BME280;51805;49.012;12.104;2023-04-21T04:20:06;97368.97;;;21.42;53.03
65227;BME280;51805;49.012;12.104;2023-04-21T04:22:32;97444.28;;;21.83;53.20
65227;BME280;51805;49.012;12.104;2023-04-21T04:24:57;97436.47;;;21.81;52.98
65227;BME280;51805;49.012;12.104;2023-04-21T04:27:23;97454.25;;;21.87;53.21
65227;BME280;51805;49.012;12.104;2023-04-21T04:29:48;97407.22;;;21.55;53.00
65227;BME280;51805;49.012;12.104;2023-04-21T04:32:13;97454.81;;;21.84;53.07
65227;BME280;51805;49.012;12.104;2023-04-21T04:34:38;97449.41;;;21.84;53.02
65227;BME280;51805;49.012;12.104;2023-04-21T04:37:04;97410.19;;;21.58;53.00
65227;BME280;51805;49.012;12.104;2023-04-21T04:39:29;97448.38;;;21.80;53.16
65227;BME280;51805;49.012;12.104;2023-04-21T04:41:54;97460.03;;;21.81;53.04
65227;BME280;51805;49.012;12.104;2023-04-21T04:44:20;97443.59;;;21.67;53.15
65227;BME280;51805;49.012;12.104;2023-04-21T04:46:45;97456.53;;;21.75;53.05
65227;BME280;51805;49.012;12.104;2023-04-21T04:49:10;97447.38;;;21.71;52.81
65227;BME280;51805;49.012;12.104;2023-04-21T04:51:36;97475.38;;;21.85;53.15
65227;BME280;51805;49.012;12.104;2023-04-21T04:54:01;97461.97;;;21.75;53.04
65227;BME280;51805;49.012;12.104;2023-04-21T04:56:26;97463.00;;;21.79;52.96
65227;BME280;51805;49.012;12.104;2023-04-21T04:58:53;97391.00;;;21.31;53.01
65227;BME280;51805;49.012;12.104;2023-04-21T05:01:18;97459.75;;;21.82;53.23
65227;BME280;51805;49.012;12.104;2023-04-21T05:03:44;97465.66;;;21.84;53.03
65227;BME280;51805;49.012;12.104;2023-04-21T05:06:09;97394.41;;;21.41;53.14
65227;BME280;51805;49.012;12.104;2023-04-21T05:08:35;97462.38;;;21.87;53.04
65227;BME280;51805;49.012;12.104;2023-04-21T05:11:01;97467.78;;;21.87;53.28
65227;BME280;51805;49.012;12.104;2023-04-21T05:13:26;97460.22;;;21.84;53.06
65227;BME280;51805;49.012;12.104;2023-04-21T05:15:58;97349.50;;;21.17;52.71
65227;BME280;51805;49.012;12.104;2023-04-21T05:18:23;97462.59;;;21.91;53.00
65227;BME280;51805;49.012;12.104;2023-04-21T05:20:49;97407.31;;;21.50;52.91
65227;BME280;51805;49.012;12.104;2023-04-21T05:23:14;97417.50;;;21.58;52.91
65227;BME280;51805;49.012;12.104;2023-04-21T05:25:39;97463.47;;;21.86;52.98
65227;BME280;51805;49.012;12.104;2023-04-21T05:28:05;97458.59;;;21.88;53.08
65227;BME280;51805;49.012;12.104;2023-04-21T05:30:30;97463.41;;;21.91;53.11
65227;BME280;51805;49.012;12.104;2023-04-21T05:32:55;97469.34;;;21.93;52.92
65227;BME280;51805;49.012;12.104;2023-04-21T05:35:20;97469.56;;;21.97;53.17
65227;BME280;51805;49.012;12.104;2023-04-21T05:37:46;97460.94;;;21.95;52.83
65227;BME280;51805;49.012;12.104;2023-04-21T05:40:11;97407.13;;;21.65;52.78
65227;BME280;51805;49.012;12.104;2023-04-21T05:42:36;97470.84;;;22.04;52.62
65227;BME280;51805;49.012;12.104;2023-04-21T05:45:02;97407.97;;;21.65;52.55
65227;BME280;51805;49.012;12.104;2023-04-21T05:47:27;97379.41;;;21.54;52.45
65227;BME280;51805;49.012;12.104;2023-04-21T05:49:52;97476.72;;;22.11;52.45
65227;BME280;51805;49.012;12.104;2023-04-21T05:52:18;97464.84;;;22.07;52.27
65227;BME280;51805;49.012;12.104;2023-04-21T05:54:43;97463.78;;;22.08;52.54
65227;BME280;51805;49.012;12.104;2023-04-21T05:57:09;97366.75;;;21.50;52.38
65227;BME280;51805;49.012;12.104;2023-04-21T05:59:34;97474.47;;;22.18;52.44
65227;BME280;51805;49.012;12.104;2023-04-21T06:01:59;97444.59;;;22.05;52.50
65227;BME280;51805;49.012;12.104;2023-04-21T06:04:24;97454.31;;;22.06;52.24
65227;BME280;51805;49.012;12.104;2023-04-21T06:06:50;97456.91;;;22.16;52.03
65227;BME280;51805;49.012;12.104;2023-04-21T06:09:30;97430.78;;;22.06;52.18
65227;BME280;51805;49.012;12.104;2023-04-21T06:11:55;97339.34;;;21.56;51.98
65227;BME280;51805;49.012;12.104;2023-04-21T06:14:21;97444.13;;;22.21;52.10
65227;BME280;51805;49.012;12.104;2023-04-21T06:16:46;97471.75;;;22.42;52.02
65227;BME280;51805;49.012;12.104;2023-04-21T06:19:11;97420.41;;;22.13;52.04
65227;BME280;51805;49.012;12.104;2023-04-21T06:21:37;97372.59;;;21.85;51.94
65227;BME280;51805;49.012;12.104;2023-04-21T06:24:02;97379.75;;;21.95;51.89
65227;BME280;51805;49.012;12.104;2023-04-21T06:26:29;97438.41;;;22.23;51.95
65227;BME280;51805;49.012;12.104;2023-04-21T06:28:54;97359.66;;;21.82;52.12
65227;BME280;51805;49.012;12.104;2023-04-21T06:31:22;97407.16;;;22.12;52.10
65227;BME280;51805;49.012;12.104;2023-04-21T06:33:47;97348.91;;;21.72;52.12
65227;BME280;51805;49.012;12.104;2023-04-21T06:36:12;97341.91;;;21.71;52.02
65227;BME280;51805;49.012;12.104;2023-04-21T06:38:38;97364.50;;;21.85;52.10
65227;BME280;51805;49.012;12.104;2023-04-21T06:41:06;97339.19;;;21.71;51.74
65227;BME280;51805;49.012;12.104;2023-04-21T06:43:31;97341.31;;;21.74;51.75
65227;BME280;51805;49.012;12.104;2023-04-21T06:46:00;97422.34;;;22.31;51.80
65227;BME280;51805;49.012;12.104;2023-04-21T06:48:25;97468.28;;;22.60;51.89
65227;BME280;51805;49.012;12.104;2023-04-21T06:50:51;97346.03;;;21.87;51.94
65227;BME280;51805;49.012;12.104;2023-04-21T06:53:25;97469.53;;;22.67;52.07
65227;BME280;51805;49.012;12.104;2023-04-21T06:55:51;97437.56;;;22.46;52.04
65227;BME280;51805;49.012;12.104;2023-04-21T06:58:16;97407.19;;;22.30;51.85
65227;BME280;51805;49.012;12.104;2023-04-21T07:00:47;97418.59;;;22.51;51.76
65227;BME280;51805;49.012;12.104;2023-04-21T07:03:12;97340.53;;;21.97;51.93
65227;BME280;51805;49.012;12.104;2023-04-21T07:05:38;97349.16;;;21.99;52.06
65227;BME280;51805;49.012;12.104;2023-04-21T07:08:03;97468.00;;;22.80;51.91
65227;BME280;51805;49.012;12.104;2023-04-21T07:10:28;97374.78;;;22.25;51.64
65227;BME280;51805;49.012;12.104;2023-04-21T07:12:54;97420.72;;;22.54;51.92
65227;BME280;51805;49.012;12.104;2023-04-21T07:15:20;97358.72;;;22.10;51.93
65227;BME280;51805;49.012;12.104;2023-04-21T07:17:45;97413.41;;;22.54;51.76
65227;BME280;51805;49.012;12.104;2023-04-21T07:20:11;97366.38;;;22.27;51.75
65227;BME280;51805;49.012;12.104;2023-04-21T07:22:36;97419.25;;;22.61;51.70
65227;BME280;51805;49.012;12.104;2023-04-21T07:25:02;97364.25;;;22.24;51.76
65227;BME280;51805;49.012;12.104;2023-04-21T07:27:28;97453.00;;;22.87;51.89
65227;BME280;51805;49.012;12.104;2023-04-21T07:29:53;97346.25;;;22.14;52.00
65227;BME280;51805;49.012;12.104;2023-04-21T07:32:18;97425.31;;;22.72;51.77
65227;BME280;51805;49.012;12.104;2023-04-21T07:34:44;97396.56;;;22.57;51.83
65227;BME280;51805;49.012;12.104;2023-04-21T07:37:09;97456.88;;;23.00;51.89
65227;BME280;51805;49.012;12.104;2023-04-21T07:39:34;97371.50;;;22.47;51.88
65227;BME280;51805;49.012;12.104;2023-04-21T07:42:00;97358.09;;;22.37;52.00
65227;BME280;51805;49.012;12.104;2023-04-21T07:44:30;97379.56;;;22.52;51.73
65227;BME280;51805;49.012;12.104;2023-04-21T07:46:59;97327.25;;;22.19;51.96
65227;BME280;51805;49.012;12.104;2023-04-21T07:49:24;97336.31;;;22.28;51.62
65227;BME280;51805;49.012;12.104;2023-04-21T07:51:49;97408.28;;;22.71;51.80
65227;BME280;51805;49.012;12.104;2023-04-21T07:54:15;97383.81;;;22.58;51.88
65227;BME280;51805;49.012;12.104;2023-04-21T07:56:43;97342.16;;;22.35;51.75
65227;BME280;51805;49.012;12.104;2023-04-21T07:59:12;97314.78;;;22.18;51.80
65227;BME280;51805;49.012;12.104;2023-04-21T08:01:37;97335.16;;;22.34;51.60
65227;BME280;51805;49.012;12.104;2023-04-21T08:04:03;97312.59;;;22.20;51.84
65227;BME280;51805;49.012;12.104;2023-04-21T08:06:31;97399.13;;;22.67;51.88
65227;BME280;51805;49.012;12.104;2023-04-21T08:11:55;97326.50;;;22.32;51.65
65227;BME280;51805;49.012;12.104;2023-04-21T08:14:20;97386.16;;;22.64;51.67
65227;BME280;51805;49.012;12.104;2023-04-21T08:16:46;97333.44;;;22.38;51.53
65227;BME280;51805;49.012;12.104;2023-04-21T08:19:14;97406.00;;;22.78;51.74
65227;BME280;51805;49.012;12.104;2023-04-21T08:22:01;97335.06;;;22.39;51.55
65227;BME280;51805;49.012;12.104;2023-04-21T08:24:51;97471.69;;;23.26;51.70
65227;BME280;51805;49.012;12.104;2023-04-21T08:27:16;97378.09;;;22.59;51.65
65227;BME280;51805;49.012;12.104;2023-04-21T08:30:13;97466.25;;;23.26;51.54
65227;BME280;51805;49.012;12.104;2023-04-21T08:32:38;97390.56;;;22.79;51.49
65227;BME280;51805;49.012;12.104;2023-04-21T08:35:04;97323.72;;;22.37;51.46
65227;BME280;51805;49.012;12.104;2023-04-21T08:38:49;97461.88;;;23.30;51.58
65227;BME280;51805;49.012;12.104;2023-04-21T08:41:06;97478.91;;;23.31;51.60
65227;BME280;51805;49.012;12.104;2023-04-21T08:43:32;97346.00;;;22.53;51.49
65227;BME280;51805;49.012;12.104;2023-04-21T08:46:06;97360.19;;;22.63;51.56
65227;BME280;51805;49.012;12.104;2023-04-21T08:48:41;97471.31;;;23.33;51.53
65227;BME280;51805;49.012;12.104;2023-04-21T08:51:17;97399.47;;;22.79;51.36
65227;BME280;51805;49.012;12.104;2023-04-21T08:53:45;97446.91;;;23.14;51.56
65227;BME280;51805;49.012;12.104;2023-04-21T08:56:10;97437.63;;;23.01;51.40
65227;BME280;51805;49.012;12.104;2023-04-21T08:58:35;97346.28;;;22.51;51.57
65227;BME280;51805;49.012;12.104;2023-04-21T09:01:01;97368.25;;;22.68;51.59
65227;BME280;51805;49.012;12.104;2023-04-21T09:03:27;97389.09;;;22.86;51.45
65227;BME280;51805;49.012;12.104;2023-04-21T09:06:04;97321.72;;;22.43;51.44
65227;BME280;51805;49.012;12.104;2023-04-21T09:08:41;97321.44;;;22.44;51.72
65227;BME280;51805;49.012;12.104;2023-04-21T09:11:07;97382.94;;;22.81;51.46
65227;BME280;51805;49.012;12.104;2023-04-21T09:13:34;97445.94;;;23.24;51.46
65227;BME280;51805;49.012;12.104;2023-04-21T09:16:01;97405.56;;;22.90;51.56
65227;BME280;51805;49.012;12.104;2023-04-21T09:18:28;97420.28;;;23.02;51.56
65227;BME280;51805;49.012;12.104;2023-04-21T09:21:05;97392.59;;;22.87;51.41
65227;BME280;51805;49.012;12.104;2023-04-21T09:23:38;97429.63;;;23.10;51.24
65227;BME280;51805;49.012;12.104;2023-04-21T09:26:04;97374.66;;;22.72;51.47
65227;BME280;51805;49.012;12.104;2023-04-21T09:28:30;97406.88;;;22.92;51.45
65227;BME280;51805;49.012;12.104;2023-04-21T09:30:55;97455.56;;;23.35;51.66
65227;BME280;51805;49.012;12.104;2023-04-21T09:33:21;97382.06;;;22.85;51.47
65227;BME280;51805;49.012;12.104;2023-04-21T09:35:46;97454.22;;;23.32;51.51
65227;BME280;51805;49.012;12.104;2023-04-21T09:38:12;97455.56;;;23.35;51.50
65227;BME280;51805;49.012;12.104;2023-04-21T09:40:37;97455.25;;;23.36;51.53
65227;BME280;51805;49.012;12.104;2023-04-21T09:43:03;97438.63;;;23.24;51.49
65227;BME280;51805;49.012;12.104;2023-04-21T09:45:28;97405.09;;;23.01;51.52
65227;BME280;51805;49.012;12.104;2023-04-21T09:47:58;97302.19;;;22.46;51.52
65227;BME280;51805;49.012;12.104;2023-04-21T09:50:37;97371.81;;;22.82;51.43
65227;BME280;51805;49.012;12.104;2023-04-21T09:53:15;97379.34;;;22.85;51.68
65227;BME280;51805;49.012;12.104;2023-04-21T09:55:51;97318.09;;;22.52;51.51
65227;BME280;51805;49.012;12.104;2023-04-21T09:58:19;97405.59;;;23.03;51.45
65227;BME280;51805;49.012;12.104;2023-04-21T10:00:46;97349.28;;;22.68;51.26
65227;BME280;51805;49.012;12.104;2023-04-21T10:03:13;97313.31;;;22.44;51.69
65227;BME280;51805;49.012;12.104;2023-04-21T10:05:44;97353.41;;;22.79;51.49
65227;BME280;51805;49.012;12.104;2023-04-21T10:08:34;97393.66;;;23.04;51.57
65227;BME280;51805;49.012;12.104;2023-04-21T10:11:04;97319.63;;;22.58;51.74
65227;BME280;51805;49.012;12.104;2023-04-21T10:13:46;97399.00;;;23.10;51.66
65227;BME280;51805;49.012;12.104;2023-04-21T10:16:16;97297.00;;;22.49;51.62
65227;BME280;51805;49.012;12.104;2023-04-21T10:18:43;97435.69;;;23.39;51.59
65227;BME280;51805;49.012;12.104;2023-04-21T10:21:10;97432.97;;;23.39;51.56
65227;BME280;51805;49.012;12.104;2023-04-21T10:23:46;97428.31;;;23.40;51.63
65227;BME280;51805;49.012;12.104;2023-04-21T10:26:23;97433.75;;;23.40;51.62
65227;BME280;51805;49.012;12.104;2023-04-21T10:36:30;97421.91;;;23.36;51.78
65227;BME280;51805;49.012;12.104;2023-04-21T10:39:00;97414.06;;;23.34;51.69
65227;BME280;51805;49.012;12.104;2023-04-21T10:41:30;97414.38;;;23.33;51.76
65227;BME280;51805;49.012;12.104;2023-04-21T10:43:59;97417.06;;;23.33;51.63
65227;BME280;51805;49.012;12.104;2023-04-21T10:46:36;97420.91;;;23.32;51.65
65227;BME280;51805;49.012;12.104;2023-04-21T10:49:22;97412.75;;;23.32;51.66
65227;BME280;51805;49.012;12.104;2023-04-21T10:54:22;97407.34;;;23.32;51.61
65227;BME280;51805;49.012;12.104;2023-04-21T10:56:52;97406.81;;;23.30;51.61
65227;BME280;51805;49.012;12.104;2023-04-21T10:59:18;97408.44;;;23.31;51.59
65227;BME280;51805;49.012;12.104;2023-04-21T11:01:44;97402.22;;;23.30;51.73
65227;BME280;51805;49.012;12.104;2023-04-21T11:04:16;97407.13;;;23.28;51.49
65227;BME280;51805;49.012;12.104;2023-04-21T11:06:41;97401.69;;;23.28;51.75
65227;BME280;51805;49.012;12.104;2023-04-21T11:09:07;97399.00;;;23.28;51.64
65227;BME280;51805;49.012;12.104;2023-04-21T11:11:32;97407.94;;;23.29;51.52
65227;BME280;51805;49.012;12.104;2023-04-21T11:14:00;97403.59;;;23.28;51.57
65227;BME280;51805;49.012;12.104;2023-04-21T11:16:26;97403.59;;;23.28;51.43
65227;BME280;51805;49.012;12.104;2023-04-21T11:18:51;97398.78;;;23.25;51.54
65227;BME280;51805;49.012;12.104;2023-04-21T11:21:17;97393.34;;;23.25;51.51
65227;BME280;51805;49.012;12.104;2023-04-21T11:23:53;97395.25;;;23.24;51.50
65227;BME280;51805;49.012;12.104;2023-04-21T11:26:35;97390.63;;;23.25;51.56
65227;BME280;51805;49.012;12.104;2023-04-21T11:29:02;97387.94;;;23.25;51.50
65227;BME280;51805;49.012;12.104;2023-04-21T11:31:28;97389.56;;;23.26;51.51
65227;BME280;51805;49.012;12.104;2023-04-21T11:33:54;97386.56;;;23.27;51.60
65227;BME280;51805;49.012;12.104;2023-04-21T11:36:20;97386.72;;;23.31;51.58
65227;BME280;51805;49.012;12.104;2023-04-21T11:38:46;97389.97;;;23.33;51.70
65227;BME280;51805;49.012;12.104;2023-04-21T11:41:11;97379.13;;;23.33;51.80
65227;BME280;51805;49.012;12.104;2023-04-21T11:43:45;97382.34;;;23.35;51.88
65227;BME280;51805;49.012;12.104;2023-04-21T11:46:30;97383.44;;;23.34;51.96
65227;BME280;51805;49.012;12.104;2023-04-21T11:48:59;97387.75;;;23.35;51.98
65227;BME280;51805;49.012;12.104;2023-04-21T11:51:25;97385.53;;;23.37;52.06
65227;BME280;51805;49.012;12.104;2023-04-21T11:53:50;97376.91;;;23.35;52.23
65227;BME280;51805;49.012;12.104;2023-04-21T11:56:24;97380.94;;;23.37;52.29
65227;BME280;51805;49.012;12.104;2023-04-21T11:58:51;97375.22;;;23.39;52.11
65227;BME280;51805;49.012;12.104;2023-04-21T12:01:16;97376.91;;;23.35;52.27
65227;BME280;51805;49.012;12.104;2023-04-21T12:03:49;97380.34;;;23.40;52.32
65227;BME280;51805;49.012;12.104;2023-04-21T12:06:22;97373.00;;;23.41;52.26
65227;BME280;51805;49.012;12.104;2023-04-21T12:08:53;97385.47;;;23.42;52.42
65227;BME280;51805;49.012;12.104;2023-04-21T12:11:19;97372.72;;;23.42;52.44
65227;BME280;51805;49.012;12.104;2023-04-21T12:13:44;97375.44;;;23.42;52.45
65227;BME280;51805;49.012;12.104;2023-04-21T12:16:09;97369.69;;;23.44;52.43
65227;BME280;51805;49.012;12.104;2023-04-21T12:18:36;97366.69;;;23.45;52.40
65227;BME280;51805;49.012;12.104;2023-04-21T12:21:01;97362.69;;;23.43;52.56
65227;BME280;51805;49.012;12.104;2023-04-21T12:23:27;97356.44;;;23.42;52.48
65227;BME280;51805;49.012;12.104;2023-04-21T12:25:52;97365.28;;;23.48;52.59
65227;BME280;51805;49.012;12.104;2023-04-21T12:28:17;97365.78;;;23.50;52.58
65227;BME280;51805;49.012;12.104;2023-04-21T12:30:43;97360.38;;;23.50;52.68
65227;BME280;51805;49.012;12.104;2023-04-21T12:33:09;97358.25;;;23.47;52.69
65227;BME280;51805;49.012;12.104;2023-04-21T12:35:34;97352.75;;;23.52;52.71
65227;BME280;51805;49.012;12.104;2023-04-21T12:38:00;97324.81;;;23.38;52.92
65227;BME280;51805;49.012;12.104;2023-04-21T12:40:25;97347.81;;;23.54;52.77
65227;BME280;51805;49.012;12.104;2023-04-21T12:42:50;97352.16;;;23.55;52.73
65227;BME280;51805;49.012;12.104;2023-04-21T12:45:15;97343.72;;;23.56;52.92
65227;BME280;51805;49.012;12.104;2023-04-21T12:47:41;97337.97;;;23.58;52.98
65227;BME280;51805;49.012;12.104;2023-04-21T12:50:07;97341.97;;;23.60;52.95
65227;BME280;51805;49.012;12.104;2023-04-21T12:52:32;97330.31;;;23.60;53.01
65227;BME280;51805;49.012;12.104;2023-04-21T12:54:57;97324.31;;;23.63;53.00
65227;BME280;51805;49.012;12.104;2023-04-21T12:57:23;97328.72;;;23.59;53.07
65227;BME280;51805;49.012;12.104;2023-04-21T12:59:48;97318.59;;;23.64;52.61
65227;BME280;51805;49.012;12.104;2023-04-21T13:02:13;97319.09;;;23.53;50.42